Time;durP1;ratioP1;P1;durP2;ratioP2;P2;SDS_P1;SDS_P2;PMS_P1;PMS_P2;Temp;Humidity;BMP_temperature;BMP_pressure;BME280_temperature;BME280_humidity;BME280_pressure;Samples;Min_cycle;Max_cycle;Signal;HPM_P1;HPM_P2
2022/09/11 00:01:26;;;;;;;32.93;19.53;;;14.50;99.90;;;;;;5054763;28;20206;-55
2022/09/11 00:03:53;;;;;;;38.20;19.93;;;14.50;99.90;;;;;;5054385;28;20229;-55
2022/09/11 00:06:21;;;;;;;40.87;22.10;;;14.50;99.90;;;;;;5054524;28;20233;-57
2022/09/11 00:08:48;;;;;;;47.43;20.23;;;14.50;99.90;;;;;;5054656;28;20206;-52
2022/09/11 00:11:16;;;;;;;35.97;22.27;;;14.50;99.90;;;;;;5054615;28;20208;-57
2022/09/11 00:13:44;;;;;;;39.07;21.97;;;14.50;99.90;;;;;;5054863;28;20206;-53
2022/09/11 00:16:20;;;;;;;37.60;21.17;;;14.40;99.90;;;;;;5054428;28;20299;-52
2022/09/11 00:18:47;;;;;;;32.00;20.17;;;14.40;99.90;;;;;;5054248;28;20737;-56
2022/09/11 00:21:14;;;;;;;36.67;21.30;;;14.40;99.90;;;;;;5054051;28;20895;-57
2022/09/11 00:23:41;;;;;;;43.23;21.17;;;14.40;99.90;;;;;;5054384;28;20231;-54
2022/09/11 00:26:08;;;;;;;36.93;21.23;;;14.40;99.90;;;;;;5053888;28;20283;-51
2022/09/11 00:28:35;;;;;;;39.77;22.07;;;14.40;99.90;;;;;;5054055;28;20237;-52
2022/09/11 00:31:04;;;;;;;41.03;22.97;;;14.40;99.90;;;;;;5054019;28;20233;-48
2022/09/11 00:33:32;;;;;;;38.57;21.37;;;14.40;99.90;;;;;;5053923;28;20593;-47
2022/09/11 00:36:02;;;;;;;38.40;21.10;;;14.40;99.90;;;;;;5053518;28;20708;-50
2022/09/11 00:38:31;;;;;;;39.10;21.40;;;14.40;99.90;;;;;;5053674;28;20240;-53
2022/09/11 00:41:00;;;;;;;46.13;22.23;;;14.30;99.90;;;;;;5053968;28;20209;-48
2022/09/11 00:43:28;;;;;;;49.47;21.87;;;14.30;99.90;;;;;;5053698;28;20229;-48
2022/09/11 00:45:57;;;;;;;40.60;21.53;;;14.30;99.90;;;;;;5053301;28;20229;-54
2022/09/11 00:48:28;;;;;;;39.53;21.13;;;14.20;99.90;;;;;;5053847;28;20210;-54
2022/09/11 00:50:57;;;;;;;40.23;21.93;;;14.30;99.90;;;;;;5053856;28;20216;-53
2022/09/11 00:53:26;;;;;;;40.70;21.97;;;14.20;99.90;;;;;;5053054;28;20205;-53
2022/09/11 00:55:57;;;;;;;43.97;21.23;;;14.20;99.90;;;;;;5053428;28;20225;-54
2022/09/11 00:58:26;;;;;;;40.87;21.37;;;14.20;99.90;;;;;;5053498;28;20344;-55
2022/09/11 01:00:56;;;;;;;41.73;21.43;;;14.20;99.90;;;;;;5053306;28;20749;-53
2022/09/11 01:03:23;;;;;;;35.73;21.03;;;14.10;99.90;;;;;;5053433;28;20291;-53
2022/09/11 01:05:51;;;;;;;39.30;21.23;;;14.10;99.90;;;;;;5053257;28;20234;-51
2022/09/11 01:08:19;;;;;;;46.50;21.97;;;14.10;99.90;;;;;;5053372;28;20244;-54
2022/09/11 01:10:56;;;;;;;44.50;21.77;;;14.10;99.90;;;;;;5053256;28;20292;-53
2022/09/11 01:13:32;;;;;;;41.40;20.70;;;14.10;99.90;;;;;;5053477;28;20202;-53
2022/09/11 01:16:08;;;;;;;50.17;21.57;;;14.10;99.90;;;;;;5053123;28;20641;-55
2022/09/11 01:18:41;;;;;;;93.43;22.67;;;14.10;99.90;;;;;;5053564;28;20206;-56
2022/09/11 01:21:28;;;;;;;205.03;24.63;;;14.10;99.90;;;;;;5053451;28;20190;-54
2022/09/11 01:24:15;;;;;;;445.27;32.77;;;14.10;99.90;;;;;;5052862;28;20225;-53
2022/09/11 01:27:09;;;;;;;291.93;28.63;;;14.10;99.90;;;;;;5052700;28;20205;-50
2022/09/11 01:29:41;;;;;;;323.37;28.73;;;14.10;99.90;;;;;;5052890;28;20212;-50
2022/09/11 01:32:14;;;;;;;226.53;27.80;;;14.20;99.90;;;;;;5052741;28;20209;-52
2022/09/11 01:34:47;;;;;;;276.93;28.43;;;14.20;99.90;;;;;;5052931;28;20236;-51
2022/09/11 01:37:22;;;;;;;84.07;22.67;;;14.20;99.90;;;;;;5052483;28;20213;-56
2022/09/11 01:39:57;;;;;;;55.07;23.13;;;14.30;99.90;;;;;;5052743;28;20299;-51
2022/09/11 01:42:25;;;;;;;46.07;22.30;;;14.30;99.90;;;;;;5052405;28;20675;-51
2022/09/11 01:44:56;;;;;;;84.10;23.43;;;14.40;99.90;;;;;;5052709;28;20580;-56
2022/09/11 01:47:23;;;;;;;77.10;22.93;;;14.40;99.90;;;;;;5052536;28;20206;-54
2022/09/11 01:49:56;;;;;;;84.97;22.30;;;14.40;99.90;;;;;;5052956;28;20215;-53
2022/09/11 01:52:26;;;;;;;46.97;21.40;;;14.40;99.90;;;;;;5053003;28;20263;-54
2022/09/11 01:54:58;;;;;;;71.20;22.93;;;14.40;99.90;;;;;;5052496;28;20379;-55
2022/09/11 01:57:29;;;;;;;67.43;23.73;;;14.40;99.90;;;;;;5052552;28;20209;-53
2022/09/11 02:00:00;;;;;;;49.03;24.27;;;14.40;99.90;;;;;;5052666;28;20263;-53
2022/09/11 02:02:34;;;;;;;52.87;23.03;;;14.40;99.90;;;;;;5052729;28;20251;-53
2022/09/11 02:05:05;;;;;;;57.07;23.87;;;14.40;99.90;;;;;;5051226;28;20716;-55
2022/09/11 02:07:35;;;;;;;58.20;23.80;;;14.40;99.90;;;;;;5052754;28;20210;-50
2022/09/11 02:10:08;;;;;;;52.60;23.00;;;14.50;99.90;;;;;;5053316;28;20214;-52
2022/09/11 02:12:45;;;;;;;64.77;23.57;;;14.50;99.90;;;;;;5052656;28;20214;-55
2022/09/11 02:15:15;;;;;;;54.03;23.03;;;14.60;99.90;;;;;;5052493;28;20651;-52
2022/09/11 02:17:51;;;;;;;59.37;21.93;;;14.60;99.90;;;;;;5052006;28;20342;-53
2022/09/11 02:20:19;;;;;;;53.00;23.93;;;14.70;99.90;;;;;;5052327;28;20209;-53
2022/09/11 02:22:47;;;;;;;57.43;23.97;;;14.70;99.90;;;;;;5052152;28;20221;-54
2022/09/11 02:25:13;;;;;;;52.87;24.03;;;14.60;99.90;;;;;;5051829;28;20259;-53
2022/09/11 02:27:40;;;;;;;64.47;25.23;;;14.60;99.90;;;;;;5051784;28;20210;-55
2022/09/11 02:30:08;;;;;;;51.50;23.47;;;14.60;99.90;;;;;;5052000;28;20201;-51
2022/09/11 02:32:40;;;;;;;64.57;25.53;;;14.70;99.90;;;;;;5051946;28;20270;-55
2022/09/11 02:35:08;;;;;;;62.83;25.27;;;14.60;99.90;;;;;;5051864;28;20279;-55
2022/09/11 02:37:48;;;;;;;58.00;24.97;;;14.70;99.90;;;;;;5051747;28;20209;-52
2022/09/11 02:40:27;;;;;;;47.63;23.20;;;14.70;99.90;;;;;;5051838;28;20209;-54
2022/09/11 02:43:10;;;;;;;54.33;23.90;;;14.70;99.90;;;;;;5051970;28;20225;-56
2022/09/11 02:45:53;;;;;;;54.37;24.20;;;14.80;99.90;;;;;;5051719;28;20232;-53
2022/09/11 02:48:39;;;;;;;51.40;24.17;;;14.80;99.90;;;;;;5051715;28;20209;-53
2022/09/11 02:51:14;;;;;;;62.63;25.17;;;14.80;99.90;;;;;;5051570;28;20209;-54
2022/09/11 02:53:48;;;;;;;56.83;23.70;;;14.90;99.90;;;;;;5051974;28;20259;-54
2022/09/11 02:56:23;;;;;;;63.17;23.47;;;14.90;99.90;;;;;;5051435;28;20612;-55
2022/09/11 02:58:54;;;;;;;62.37;24.27;;;14.90;99.90;;;;;;5051650;28;20213;-52
2022/09/11 03:01:21;;;;;;;82.40;25.30;;;14.90;99.90;;;;;;5051609;28;20672;-49
2022/09/11 03:03:49;;;;;;;50.27;24.10;;;14.80;99.90;;;;;;5051717;28;20283;-52
2022/09/11 03:06:20;;;;;;;60.33;27.23;;;14.70;99.90;;;;;;5051299;28;20233;-51
2022/09/11 03:08:47;;;;;;;66.87;28.30;;;14.70;99.90;;;;;;5051794;28;20202;-48
2022/09/11 03:11:16;;;;;;;89.17;27.73;;;14.80;99.90;;;;;;5051492;28;20591;-50
2022/09/11 03:13:43;;;;;;;79.23;26.87;;;14.70;99.90;;;;;;5051777;28;20289;-55
2022/09/11 03:16:11;;;;;;;69.33;26.90;;;14.70;99.90;;;;;;5054984;28;20225;-54
2022/09/11 03:18:38;;;;;;;51.43;26.07;;;14.80;99.90;;;;;;5057456;28;20206;-56
2022/09/11 03:21:06;;;;;;;67.53;28.97;;;14.80;99.90;;;;;;5055442;28;20263;-56
2022/09/11 03:23:33;;;;;;;81.70;28.50;;;14.80;99.90;;;;;;5055247;28;20226;-54
2022/09/11 03:25:59;;;;;;;82.83;30.73;;;14.80;99.90;;;;;;5054967;28;20230;-57
2022/09/11 03:28:26;;;;;;;106.57;31.33;;;14.80;99.90;;;;;;5055200;28;20283;-54
2022/09/11 03:30:53;;;;;;;99.07;33.27;;;14.80;99.90;;;;;;5055313;28;20201;-55
2022/09/11 03:33:19;;;;;;;130.13;34.87;;;14.90;99.90;;;;;;5055302;28;20209;-53
2022/09/11 03:35:46;;;;;;;234.17;36.27;;;14.90;99.90;;;;;;5055133;28;20303;-56
2022/09/11 03:38:14;;;;;;;378.90;39.67;;;14.90;99.90;;;;;;5055079;28;20209;-54
2022/09/11 03:40:42;;;;;;;283.07;41.37;;;14.80;99.90;;;;;;5055244;28;20209;-55
2022/09/11 03:43:11;;;;;;;107.87;35.27;;;14.80;99.90;;;;;;5054776;28;20748;-54
2022/09/11 03:45:38;;;;;;;158.07;34.03;;;14.80;99.90;;;;;;5054913;28;20222;-56
2022/09/11 03:48:05;;;;;;;150.97;38.17;;;14.80;99.90;;;;;;5054721;28;20209;-54
2022/09/11 03:50:32;;;;;;;109.67;35.73;;;14.90;99.90;;;;;;5054956;28;20237;-56
2022/09/11 03:52:58;;;;;;;185.27;38.67;;;14.90;99.90;;;;;;5054756;28;20206;-54
2022/09/11 03:55:27;;;;;;;231.50;39.47;;;15.00;99.90;;;;;;5054539;28;20292;-55
2022/09/11 03:57:54;;;;;;;271.80;38.10;;;14.90;99.90;;;;;;5054566;28;20315;-56
2022/09/11 04:00:21;;;;;;;485.93;45.17;;;14.80;99.90;;;;;;5054657;28;20571;-53
2022/09/11 04:02:48;;;;;;;126.77;34.67;;;14.80;99.90;;;;;;5054649;28;20244;-53
2022/09/11 04:05:15;;;;;;;173.63;33.43;;;14.80;99.90;;;;;;5054269;28;20271;-52
2022/09/11 04:07:41;;;;;;;301.07;38.10;;;14.90;99.90;;;;;;5053913;28;20633;-55
2022/09/11 04:10:09;;;;;;;182.07;34.13;;;14.90;99.90;;;;;;5054256;28;20680;-53
2022/09/11 04:12:37;;;;;;;501.03;43.70;;;15.00;99.90;;;;;;5054524;28;20229;-56
2022/09/11 04:15:04;;;;;;;354.97;40.67;;;14.90;99.90;;;;;;5054367;28;20276;-52
2022/09/11 04:17:31;;;;;;;310.77;38.00;;;14.90;99.90;;;;;;5054004;28;20694;-54
2022/09/11 04:19:58;;;;;;;247.87;36.00;;;15.00;99.90;;;;;;5054297;28;20259;-53
2022/09/11 04:22:25;;;;;;;446.97;41.73;;;15.00;99.90;;;;;;5054267;28;20235;-54
2022/09/11 04:24:51;;;;;;;470.30;40.53;;;15.00;99.90;;;;;;5053880;28;20271;-54
2022/09/11 04:27:19;;;;;;;270.53;37.80;;;15.00;99.90;;;;;;5053017;28;20210;-56
2022/09/11 04:29:47;;;;;;;389.63;39.70;;;15.00;99.90;;;;;;5053897;28;20929;-54
2022/09/11 04:32:14;;;;;;;536.73;43.93;;;15.00;99.90;;;;;;5054127;28;20205;-56
2022/09/11 04:34:41;;;;;;;443.80;41.73;;;14.90;99.90;;;;;;5053897;28;20275;-55
2022/09/11 04:37:08;;;;;;;401.73;40.50;;;15.00;99.90;;;;;;5053662;28;20206;-54
2022/09/11 04:39:35;;;;;;;528.33;44.77;;;15.00;99.90;;;;;;5053967;28;20208;-56
2022/09/11 04:42:03;;;;;;;248.77;35.30;;;15.00;99.90;;;;;;5053935;28;20206;-54
2022/09/11 04:44:31;;;;;;;401.93;41.40;;;15.00;99.90;;;;;;5053647;28;20229;-53
2022/09/11 04:46:59;;;;;;;530.57;42.30;;;15.00;99.90;;;;;;5053699;28;20205;-53
2022/09/11 04:49:26;;;;;;;299.03;38.10;;;15.00;99.90;;;;;;5053764;28;20205;-48
2022/09/11 04:51:52;;;;;;;223.83;36.87;;;15.00;99.90;;;;;;5053794;28;20205;-54
2022/09/11 04:54:21;;;;;;;334.30;37.83;;;15.00;99.90;;;;;;5053714;28;20271;-53
2022/09/11 04:56:48;;;;;;;537.00;43.40;;;15.00;99.90;;;;;;5053350;28;20225;-50
2022/09/11 04:59:16;;;;;;;513.17;42.30;;;15.00;99.90;;;;;;5053569;28;20247;-58
2022/09/11 05:01:45;;;;;;;390.37;41.00;;;14.90;99.90;;;;;;5053619;28;20259;-56
2022/09/11 05:04:14;;;;;;;377.10;40.87;;;14.90;99.90;;;;;;5053516;28;20237;-49
2022/09/11 05:06:41;;;;;;;376.23;43.10;;;15.00;99.90;;;;;;5053179;28;20214;-48
2022/09/11 05:09:09;;;;;;;320.63;39.63;;;14.90;99.90;;;;;;5053510;28;20210;-53
2022/09/11 05:11:38;;;;;;;379.33;40.53;;;14.90;99.90;;;;;;5053560;28;20252;-50
2022/09/11 05:14:04;;;;;;;409.23;42.27;;;15.00;99.90;;;;;;5053272;28;20284;-50
2022/09/11 05:16:33;;;;;;;282.27;38.40;;;15.00;99.90;;;;;;5052819;28;20229;-53
2022/09/11 05:19:00;;;;;;;409.70;42.30;;;15.00;99.90;;;;;;5053292;28;20217;-52
2022/09/11 05:21:28;;;;;;;503.50;43.57;;;15.00;99.90;;;;;;5053208;28;20209;-52
2022/09/11 05:23:57;;;;;;;314.63;39.10;;;15.00;99.90;;;;;;5053174;28;20279;-49
2022/09/11 05:26:25;;;;;;;494.77;44.33;;;15.00;99.90;;;;;;5052726;28;20229;-52
2022/09/11 05:28:54;;;;;;;123.40;35.63;;;15.00;99.90;;;;;;5052799;28;20209;-49
2022/09/11 05:31:21;;;;;;;382.43;40.67;;;15.00;99.90;;;;;;5052737;28;20252;-53
2022/09/11 05:33:48;;;;;;;234.10;37.33;;;14.90;99.90;;;;;;5052952;28;20619;-56
2022/09/11 05:36:15;;;;;;;218.53;38.20;;;14.90;99.90;;;;;;5052558;28;20657;-53
2022/09/11 05:38:44;;;;;;;174.63;37.27;;;14.80;99.90;;;;;;5052362;28;20251;-54
2022/09/11 05:41:12;;;;;;;205.07;37.63;;;14.80;99.90;;;;;;5053018;28;20240;-53
2022/09/11 05:43:40;;;;;;;142.67;36.07;;;14.90;99.90;;;;;;5052598;28;20212;-53
2022/09/11 05:46:08;;;;;;;454.47;44.30;;;14.90;99.90;;;;;;5052262;28;20297;-55
2022/09/11 05:48:37;;;;;;;509.33;47.17;;;14.90;99.90;;;;;;5052837;28;20202;-55
2022/09/11 05:51:06;;;;;;;522.67;46.43;;;14.80;99.90;;;;;;5052591;28;20217;-53
2022/09/11 05:53:33;;;;;;;258.77;40.40;;;14.80;99.90;;;;;;5052437;28;20583;-55
2022/09/11 05:56:08;;;;;;;358.67;44.37;;;14.90;99.90;;;;;;5052209;28;20225;-54
2022/09/11 05:58:35;;;;;;;393.30;42.73;;;15.00;99.90;;;;;;5052771;28;20250;-50
2022/09/11 06:01:07;;;;;;;428.20;45.27;;;15.00;99.90;;;;;;5052495;28;20259;-56
2022/09/11 06:03:34;;;;;;;231.67;42.03;;;15.00;99.90;;;;;;5052485;28;20202;-52
2022/09/11 06:06:01;;;;;;;250.43;40.37;;;15.10;99.90;;;;;;5052158;28;20599;-51
2022/09/11 06:08:28;;;;;;;220.27;37.13;;;15.10;99.90;;;;;;5052541;28;20201;-50
2022/09/11 06:10:56;;;;;;;257.20;40.20;;;15.00;99.90;;;;;;5052025;28;20209;-54
2022/09/11 06:13:25;;;;;;;211.90;37.87;;;15.10;99.90;;;;;;5052234;28;20225;-52
2022/09/11 06:15:52;;;;;;;204.93;37.03;;;15.20;99.90;;;;;;5052010;28;20226;-54
2022/09/11 06:18:18;;;;;;;183.53;37.40;;;15.10;99.90;;;;;;5052125;28;20243;-56
2022/09/11 06:20:55;;;;;;;327.87;41.00;;;15.20;99.90;;;;;;5052049;28;20209;-54
2022/09/11 06:23:24;;;;;;;346.63;41.40;;;15.10;99.90;;;;;;5051961;28;20625;-50
2022/09/11 06:25:53;;;;;;;167.50;35.73;;;15.00;99.90;;;;;;5051985;28;20259;-53
2022/09/11 06:28:21;;;;;;;162.17;35.47;;;15.00;99.90;;;;;;5051994;28;20631;-51
2022/09/11 06:30:50;;;;;;;168.53;37.57;;;14.90;99.90;;;;;;5051973;28;20625;-52
2022/09/11 06:33:19;;;;;;;153.37;36.17;;;15.00;99.90;;;;;;5051830;28;20212;-50
2022/09/11 06:35:55;;;;;;;133.20;35.70;;;15.10;99.90;;;;;;5051712;28;20227;-49
2022/09/11 06:38:21;;;;;;;150.23;35.37;;;15.20;99.90;;;;;;5051986;28;20275;-51
2022/09/11 06:40:49;;;;;;;135.07;35.20;;;15.20;99.90;;;;;;5051903;28;20201;-49
2022/09/11 06:43:15;;;;;;;135.13;35.37;;;15.10;99.90;;;;;;5051904;28;20228;-53
2022/09/11 06:45:42;;;;;;;158.40;36.73;;;15.00;99.90;;;;;;5052727;28;20290;-56
2022/09/11 06:48:11;;;;;;;247.83;37.67;;;15.00;99.90;;;;;;5054815;28;20217;-57
2022/09/11 06:50:39;;;;;;;190.70;39.63;;;14.90;99.90;;;;;;5057071;28;20201;-55
2022/09/11 06:53:05;;;;;;;241.70;38.03;;;14.90;99.90;;;;;;5058381;28;20201;-55
2022/09/11 06:55:33;;;;;;;177.37;39.80;;;14.90;99.90;;;;;;5058197;28;20768;-56
2022/09/11 06:58:01;;;;;;;190.40;38.20;;;14.90;99.90;;;;;;5058014;28;20896;-55
2022/09/11 07:00:27;;;;;;;206.77;39.27;;;14.90;99.90;;;;;;5058237;28;20561;-54
2022/09/11 07:02:55;;;;;;;121.93;35.40;;;14.90;99.90;;;;;;5058249;28;20205;-56
2022/09/11 07:05:23;;;;;;;156.57;37.77;;;15.00;99.90;;;;;;5058072;28;20795;-53
2022/09/11 07:07:52;;;;;;;166.03;38.60;;;15.00;99.90;;;;;;5058277;28;20201;-56
2022/09/11 07:10:19;;;;;;;140.23;37.20;;;15.10;99.90;;;;;;5058161;28;20209;-54
2022/09/11 07:12:45;;;;;;;169.30;38.63;;;15.20;99.90;;;;;;5058171;28;20741;-55
2022/09/11 07:15:12;;;;;;;130.77;36.47;;;15.10;99.90;;;;;;5058034;28;20275;-56
2022/09/11 07:17:39;;;;;;;211.90;39.73;;;15.20;99.90;;;;;;5058078;28;20263;-55
2022/09/11 07:20:07;;;;;;;165.70;38.20;;;15.30;99.90;;;;;;5057923;28;20729;-54
2022/09/11 07:22:35;;;;;;;179.00;38.47;;;15.20;99.90;;;;;;5058379;28;20263;-53
2022/09/11 07:25:03;;;;;;;272.50;39.20;;;15.10;99.90;;;;;;5057842;28;20731;-53
2022/09/11 07:27:32;;;;;;;161.33;38.37;;;15.00;99.90;;;;;;5057800;28;20210;-52
2022/09/11 07:29:59;;;;;;;162.43;39.33;;;15.00;99.90;;;;;;5058107;28;20201;-56
2022/09/11 07:32:25;;;;;;;145.20;37.60;;;15.10;99.90;;;;;;5058178;28;20623;-57
2022/09/11 07:34:52;;;;;;;147.40;38.87;;;15.20;99.90;;;;;;5047439;28;20922;-54
2022/09/11 07:37:19;;;;;;;146.77;37.73;;;15.00;99.90;;;;;;5056193;28;20213;-54
2022/09/11 07:39:47;;;;;;;162.00;39.93;;;15.00;99.90;;;;;;5057432;28;20263;-52
2022/09/11 07:42:13;;;;;;;162.20;42.20;;;15.00;99.90;;;;;;5057363;28;20631;-53
2022/09/11 07:44:40;;;;;;;150.70;40.67;;;15.30;99.90;;;;;;5057051;28;20355;-53
2022/09/11 07:47:07;;;;;;;156.40;42.80;;;15.40;99.90;;;;;;5057153;28;20217;-57
2022/09/11 07:49:33;;;;;;;149.97;42.27;;;15.60;99.90;;;;;;5057782;28;20255;-53
2022/09/11 07:52:02;;;;;;;143.53;39.30;;;15.70;99.90;;;;;;5057531;28;20259;-55
2022/09/11 07:54:29;;;;;;;142.10;40.00;;;15.80;99.90;;;;;;5057207;28;20202;-53
2022/09/11 07:56:57;;;;;;;140.17;40.90;;;15.80;99.90;;;;;;5056812;28;20573;-53
2022/09/11 07:59:24;;;;;;;136.83;38.67;;;15.80;99.90;;;;;;5056993;28;20235;-51
2022/09/11 08:01:51;;;;;;;125.20;37.83;;;15.80;99.90;;;;;;5056229;28;20210;-52
2022/09/11 08:04:18;;;;;;;119.20;37.60;;;15.70;99.90;;;;;;5053882;28;20209;-56
2022/09/11 08:06:46;;;;;;;122.23;36.87;;;15.60;99.90;;;;;;5053396;28;20217;-52
2022/09/11 08:09:14;;;;;;;114.63;37.97;;;15.80;99.90;;;;;;5054287;28;20233;-54
2022/09/11 08:11:44;;;;;;;114.37;35.87;;;15.80;99.90;;;;;;5054315;28;20233;-54
2022/09/11 08:14:13;;;;;;;112.67;36.33;;;15.70;99.90;;;;;;5054277;28;20244;-54
2022/09/11 08:16:40;;;;;;;107.80;36.23;;;15.70;99.90;;;;;;5054251;28;20231;-55
2022/09/11 08:19:07;;;;;;;114.13;35.60;;;15.80;99.90;;;;;;5054318;28;20240;-57
2022/09/11 08:21:34;;;;;;;104.57;36.50;;;15.80;99.90;;;;;;5054216;28;20217;-57
2022/09/11 08:24:02;;;;;;;98.80;34.93;;;15.90;99.90;;;;;;5054134;28;20331;-55
2022/09/11 08:26:30;;;;;;;93.23;33.73;;;15.90;99.90;;;;;;5053755;28;20225;-55
2022/09/11 08:28:58;;;;;;;90.67;34.07;;;15.80;99.90;;;;;;5054196;28;20259;-54
2022/09/11 08:31:27;;;;;;;95.73;33.67;;;15.70;99.90;;;;;;5054274;28;20281;-56
2022/09/11 08:33:55;;;;;;;96.73;34.57;;;15.80;99.90;;;;;;5054053;28;20339;-55
2022/09/11 08:36:22;;;;;;;85.77;32.50;;;15.80;99.90;;;;;;5053748;28;20221;-53
2022/09/11 08:38:50;;;;;;;75.50;31.03;;;16.00;99.90;;;;;;5053693;28;20206;-56
2022/09/11 08:41:29;;;;;;;73.40;30.37;;;16.00;99.90;;;;;;5053918;28;20289;-55
2022/09/11 08:44:00;;;;;;;83.77;32.37;;;16.10;99.90;;;;;;5053914;28;20239;-53
2022/09/11 08:46:33;;;;;;;85.97;31.57;;;16.10;99.90;;;;;;5053413;28;20275;-52
2022/09/11 08:49:06;;;;;;;74.73;31.23;;;16.20;99.90;;;;;;5053913;28;20587;-56
2022/09/11 08:51:33;;;;;;;68.37;30.23;;;16.30;99.90;;;;;;5053630;28;20205;-56
2022/09/11 08:54:02;;;;;;;66.93;28.57;;;16.40;99.90;;;;;;5053674;28;20201;-56
2022/09/11 08:56:32;;;;;;;58.63;28.27;;;16.30;99.90;;;;;;5053243;28;20313;-58
2022/09/11 08:59:12;;;;;;;62.80;27.77;;;16.30;99.90;;;;;;5053482;28;20212;-55
2022/09/11 09:01:46;;;;;;;64.10;27.80;;;16.30;99.90;;;;;;5053375;28;20205;-54
2022/09/11 09:04:31;;;;;;;59.83;28.43;;;16.30;99.90;;;;;;5053749;28;20282;-53
2022/09/11 09:07:08;;;;;;;72.50;31.70;;;16.40;99.90;;;;;;5053357;28;20626;-54
2022/09/11 09:09:42;;;;;;;63.53;29.77;;;16.40;99.90;;;;;;5053390;28;20201;-54
2022/09/11 09:12:16;;;;;;;67.87;30.53;;;16.50;99.90;;;;;;5053455;28;20205;-54
2022/09/11 09:15:02;;;;;;;63.10;30.10;;;16.60;99.90;;;;;;5052627;28;20726;-58
2022/09/11 09:17:35;;;;;;;65.13;31.10;;;16.60;99.90;;;;;;5053031;28;20209;-57
2022/09/11 09:20:09;;;;;;;70.47;31.33;;;16.60;99.90;;;;;;5053188;28;20212;-54
2022/09/11 09:22:43;;;;;;;68.93;31.23;;;16.70;99.90;;;;;;5053045;28;20209;-53
2022/09/11 09:25:13;;;;;;;60.23;29.10;;;16.70;99.90;;;;;;5052879;28;20680;-54
2022/09/11 09:27:44;;;;;;;70.07;31.70;;;16.70;99.90;;;;;;5052751;28;20202;-50
2022/09/11 09:30:16;;;;;;;67.77;32.63;;;16.60;99.90;;;;;;5052896;28;20205;-57
2022/09/11 09:32:51;;;;;;;76.03;33.23;;;16.60;99.90;;;;;;5052846;28;20218;-57
2022/09/11 09:35:22;;;;;;;79.23;34.30;;;16.40;99.90;;;;;;5053011;28;20221;-55
2022/09/11 09:37:49;;;;;;;84.90;35.13;;;16.40;99.90;;;;;;5052412;28;20606;-52
2022/09/11 09:40:17;;;;;;;86.17;36.43;;;16.50;99.90;;;;;;5052796;28;20216;-53
2022/09/11 09:43:07;;;;;;;84.13;34.73;;;16.50;99.90;;;;;;5052840;28;20209;-58
2022/09/11 09:45:41;;;;;;;80.80;34.90;;;16.60;99.90;;;;;;5040724;28;20744;-57
2022/09/11 09:48:11;;;;;;;80.97;35.13;;;16.70;99.90;;;;;;5052601;28;20211;-58
2022/09/11 09:50:40;;;;;;;88.33;37.97;;;16.70;99.90;;;;;;5052706;28;20256;-57
2022/09/11 09:53:15;;;;;;;93.33;37.70;;;16.80;99.90;;;;;;5052330;28;20206;-53
2022/09/11 09:55:43;;;;;;;90.63;37.73;;;16.90;99.90;;;;;;5052421;28;20228;-55
2022/09/11 09:58:10;;;;;;;84.07;37.30;;;17.00;99.90;;;;;;5052088;28;20248;-56
2022/09/11 10:00:39;;;;;;;80.67;36.97;;;17.10;99.90;;;;;;5052474;28;20214;-54
2022/09/11 10:03:23;;;;;;;76.63;36.30;;;17.20;99.90;;;;;;5052324;28;20209;-52
2022/09/11 10:05:53;;;;;;;83.00;36.70;;;17.30;99.90;;;;;;5049613;28;20268;-54
2022/09/11 10:08:30;;;;;;;74.13;34.70;;;17.50;99.90;;;;;;5051980;28;20213;-52
2022/09/11 10:10:59;;;;;;;71.70;33.17;;;17.70;47.40;;;;;;5052337;28;20213;-54
2022/09/11 10:13:28;;;;;;;65.10;31.87;;;17.60;1.00;;;;;;5051868;28;20582;-49
2022/09/11 10:15:58;;;;;;;70.17;32.90;;;17.70;1.00;;;;;;5051675;28;20229;-52
2022/09/11 10:18:41;;;;;;;73.73;32.93;;;17.60;1.00;;;;;;5052122;28;20236;-51
2022/09/11 10:21:28;;;;;;;73.83;33.37;;;17.50;1.00;;;;;;5052422;28;20205;-51
2022/09/11 10:23:56;;;;;;;68.03;32.77;;;17.50;53.10;;;;;;5053149;28;20209;-54
2022/09/11 10:26:27;;;;;;;69.83;33.73;;;17.40;50.30;;;;;;5050631;28;20691;-53
2022/09/11 10:28:55;;;;;;;61.93;31.63;;;17.60;72.50;;;;;;5051820;28;20214;-51
2022/09/11 10:31:23;;;;;;;67.03;31.37;;;17.50;1.00;;;;;;5051680;28;20212;-56
2022/09/11 10:33:55;;;;;;;61.63;31.07;;;17.60;1.00;;;;;;5041807;28;20209;-55
2022/09/11 10:36:24;;;;;;;57.70;28.83;;;17.50;1.00;;;;;;5050091;28;20312;-62
2022/09/11 10:38:51;;;;;;;57.77;28.63;;;17.50;1.00;;;;;;5050705;28;20882;-54
2022/09/11 10:41:21;;;;;;;60.33;30.33;;;17.80;1.00;;;;;;5051215;28;20209;-57
2022/09/11 10:43:52;;;;;;;60.20;32.10;;;17.90;1.00;;;;;;5050496;28;20205;-60
2022/09/11 10:46:31;;;;;;;53.00;28.17;;;17.80;1.00;;;;;;5050843;28;20241;-58
2022/09/11 10:49:08;;;;;;;53.73;26.73;;;17.60;1.00;;;;;;5051150;28;20207;-56
2022/09/11 10:51:37;;;;;;;53.63;29.77;;;17.50;1.00;;;;;;5051200;28;20212;-56
2022/09/11 10:54:22;;;;;;;49.30;28.63;;;17.50;1.00;;;;;;5051204;28;20205;-53
2022/09/11 10:57:04;;;;;;;60.13;31.17;;;17.50;1.00;;;;;;5050822;28;20784;-53
2022/09/11 10:59:38;;;;;;;58.13;30.90;;;17.80;1.00;;;;;;5051340;28;20210;-51
2022/09/11 11:02:17;;;;;;;55.47;29.57;;;17.70;1.00;;;;;;5051313;28;20218;-55
2022/09/11 11:04:46;;;;;;;51.83;28.37;;;17.80;1.00;;;;;;5049024;28;20231;-54
2022/09/11 11:07:24;;;;;;;50.13;27.03;;;17.80;1.00;;;;;;5050764;28;20230;-57
2022/09/11 11:10:00;;;;;;;49.20;27.53;;;17.80;1.00;;;;;;5047128;28;20268;-53
2022/09/11 11:12:52;;;;;;;49.47;27.33;;;17.70;1.00;;;;;;5050237;28;20206;-55
2022/09/11 11:15:38;;;;;;;57.70;31.97;;;17.70;1.00;;;;;;5050406;28;20238;-56
2022/09/11 11:18:22;;;;;;;51.93;28.50;;;17.70;1.00;;;;;;5050545;28;20201;-55
2022/09/11 11:20:58;;;;;;;51.73;28.10;;;17.90;1.00;;;;;;5050841;28;20742;-55
2022/09/11 11:23:48;;;;;;;54.63;29.50;;;17.90;1.00;;;;;;5050379;28;20259;-56
2022/09/11 11:26:28;;;;;;;52.23;27.43;;;18.20;1.00;;;;;;5050428;28;20273;-55
2022/09/11 11:29:21;;;;;;;48.57;26.47;;;18.00;1.00;;;;;;5050404;28;20220;-51
2022/09/11 11:32:02;;;;;;;112.67;58.97;;;17.90;1.00;;;;;;5050507;28;20236;-54
2022/09/11 11:35:00;;;;;;;46.20;26.37;;;17.90;1.00;;;;;;5050992;28;20202;-50
2022/09/11 11:37:33;;;;;;;51.33;25.97;;;17.90;1.00;;;;;;5053068;28;20216;-54
2022/09/11 11:40:05;;;;;;;55.80;27.40;;;18.20;1.00;;;;;;5054340;28;20209;-51
2022/09/11 11:42:37;;;;;;;49.37;26.80;;;17.90;1.00;;;;;;5054202;28;20212;-53
2022/09/11 11:45:10;;;;;;;52.13;26.30;;;18.00;1.00;;;;;;5053193;28;20229;-50
2022/09/11 11:47:41;;;;;;;45.77;25.70;;;17.90;1.00;;;;;;5054110;28;20267;-52
2022/09/11 11:50:16;;;;;;;48.87;24.37;;;17.90;1.00;;;;;;5054296;28;20706;-55
2022/09/11 11:52:55;;;;;;;44.33;24.20;;;17.70;1.00;;;;;;5054068;28;20597;-54
2022/09/11 11:55:25;;;;;;;47.77;25.07;;;17.70;1.00;;;;;;5054460;28;20646;-52
2022/09/11 11:58:00;;;;;;;50.87;25.80;;;18.00;1.00;;;;;;5053804;28;20206;-53
2022/09/11 12:00:28;;;;;;;45.87;26.60;;;18.20;1.00;;;;;;5054224;28;20205;-55
2022/09/11 12:03:00;;;;;;;44.20;26.13;;;18.00;99.90;;;;;;5054348;28;20283;-51
2022/09/11 12:05:31;;;;;;;44.37;25.97;;;18.00;1.00;;;;;;5053774;28;20229;-47
2022/09/11 12:07:59;;;;;;;47.20;25.97;;;18.10;1.00;;;;;;5053757;28;20213;-52
2022/09/11 12:10:32;;;;;;;43.70;25.00;;;18.30;1.00;;;;;;5054275;28;20267;-54
2022/09/11 12:13:01;;;;;;;44.17;25.37;;;18.30;99.90;;;;;;5053926;28;20209;-54
2022/09/11 12:15:31;;;;;;;46.13;26.87;;;18.40;99.90;;;;;;5053285;28;20272;-52
2022/09/11 12:18:01;;;;;;;48.93;28.93;;;18.30;99.90;;;;;;5053658;28;20210;-55
2022/09/11 12:20:37;;;;;;;49.07;28.60;;;18.20;99.90;;;;;;5053747;28;20245;-53
2022/09/11 12:23:08;;;;;;;45.73;27.40;;;18.40;99.90;;;;;;5053761;28;20255;-51
2022/09/11 12:26:02;;;;;;;46.17;27.63;;;18.10;99.90;;;;;;5053006;28;20233;-55
2022/09/11 12:28:29;;;;;;;46.13;27.37;;;17.90;99.90;;;;;;5053916;28;20210;-52
2022/09/11 12:31:01;;;;;;;45.10;27.40;;;18.00;99.90;;;;;;5053254;28;20201;-51
2022/09/11 12:33:49;;;;;;;53.27;31.23;;;18.10;99.90;;;;;;5053608;28;20217;-54
2022/09/11 12:36:18;;;;;;;47.27;27.40;;;18.20;1.00;;;;;;5052414;28;20222;-54
2022/09/11 12:38:49;;;;;;;40.00;24.90;;;18.20;99.90;;;;;;5053362;28;20691;-51
2022/09/11 12:41:22;;;;;;;43.00;26.67;;;18.30;99.90;;;;;;5053315;28;20213;-54